createdAt,value
2019-06-26T00:01:45.902Z,14.87
2019-06-26T00:04:14.925Z,15.77
2019-06-26T00:06:43.974Z,14.97
2019-06-26T00:09:13.698Z,15.77
2019-06-26T00:11:42.732Z,17.60
2019-06-26T00:14:11.769Z,18.57
2019-06-26T00:16:40.785Z,16.47
2019-06-26T00:19:09.835Z,17.60
2019-06-26T00:21:38.870Z,16.13
2019-06-26T00:24:08.034Z,16.17
2019-06-26T00:26:37.212Z,14.00
2019-06-26T00:29:06.283Z,16.97
2019-06-26T00:31:35.340Z,15.30
2019-06-26T00:34:04.519Z,17.20
2019-06-26T00:36:33.476Z,15.93
2019-06-26T00:39:02.522Z,15.25
2019-06-26T00:41:31.546Z,13.60
2019-06-26T00:44:00.628Z,14.90
2019-06-26T00:46:29.667Z,17.07
2019-06-26T00:48:59.011Z,16.23
2019-06-26T00:51:28.060Z,15.97
2019-06-26T00:53:57.531Z,15.23
2019-06-26T00:56:27.457Z,16.97
2019-06-26T00:58:57.518Z,18.00
2019-06-26T01:01:27.505Z,15.93
2019-06-26T01:04:00.735Z,19.57
2019-06-26T01:06:45.307Z,16.27
2019-06-26T01:09:15.435Z,19.07
2019-06-26T01:11:44.462Z,19.47
2019-06-26T01:14:13.491Z,17.50
2019-06-26T01:16:42.524Z,16.48
2019-06-26T01:19:11.840Z,17.60
2019-06-26T01:21:40.856Z,18.37
2019-06-26T01:24:09.986Z,16.50
2019-06-26T01:26:39.003Z,19.13
2019-06-26T01:29:08.398Z,17.03
2019-06-26T01:31:37.428Z,18.40
2019-06-26T01:34:06.452Z,17.30
2019-06-26T01:36:35.475Z,16.00
2019-06-26T01:39:05.818Z,18.17
2019-06-26T01:41:34.871Z,20.03
2019-06-26T01:44:14.087Z,18.87
2019-06-26T01:46:35.555Z,19.50
2019-06-26T01:49:04.609Z,16.03
2019-06-26T01:51:33.648Z,16.73
2019-06-26T01:54:02.732Z,18.27
2019-06-26T01:56:31.743Z,17.60
2019-06-26T01:59:00.783Z,19.20
2019-06-26T02:01:29.812Z,21.40
2019-06-26T02:03:58.851Z,16.90
2019-06-26T02:06:28.021Z,25.63
2019-06-26T02:08:58.043Z,17.30
2019-06-26T02:11:28.028Z,17.12
2019-06-26T02:13:57.989Z,21.63
2019-06-26T02:16:27.982Z,20.73
2019-06-26T02:19:00.498Z,19.93
2019-06-26T02:21:29.962Z,19.97
2019-06-26T02:23:58.969Z,19.80
2019-06-26T02:26:28.139Z,22.23
2019-06-26T02:28:58.463Z,22.20
2019-06-26T02:31:28.187Z,32.13
2019-06-26T02:33:58.238Z,21.83
2019-06-26T02:36:28.119Z,20.68
2019-06-26T02:38:57.138Z,21.23
2019-06-26T02:41:26.187Z,19.37
2019-06-26T02:43:55.502Z,21.93
2019-06-26T02:46:24.471Z,19.10
2019-06-26T02:48:53.513Z,18.83
2019-06-26T02:51:22.561Z,20.63
2019-06-26T02:53:51.567Z,19.97
2019-06-26T02:56:20.598Z,19.10
2019-06-26T02:58:49.622Z,18.43
2019-06-26T03:01:18.676Z,23.57
2019-06-26T03:03:47.707Z,18.97
2019-06-26T03:06:16.667Z,19.97
2019-06-26T03:08:45.767Z,19.70
2019-06-26T03:11:14.796Z,20.23
2019-06-26T03:13:43.842Z,20.47
2019-06-26T03:16:12.793Z,17.20
2019-06-26T03:18:41.815Z,21.23
2019-06-26T03:21:10.929Z,21.27
2019-06-26T03:23:40.852Z,19.33
2019-06-26T03:26:09.888Z,18.93
2019-06-26T03:28:38.903Z,16.67
2019-06-26T03:31:07.946Z,18.27
2019-06-26T03:33:37.330Z,15.90
2019-06-26T03:36:06.421Z,20.37
2019-06-26T03:38:35.782Z,18.15
2019-06-26T03:41:05.086Z,19.43
2019-06-26T03:43:35.631Z,18.37
2019-06-26T03:46:04.956Z,20.77
2019-06-26T03:48:34.126Z,19.07
2019-06-26T03:51:03.131Z,15.98
2019-06-26T03:53:32.074Z,18.13
2019-06-26T03:56:01.120Z,19.63
2019-06-26T03:58:30.425Z,19.67
2019-06-26T04:00:59.455Z,17.37
2019-06-26T04:03:28.700Z,19.77
2019-06-26T04:05:58.673Z,24.07
2019-06-26T04:08:28.678Z,18.27
2019-06-26T04:10:58.782Z,19.13
2019-06-26T04:13:28.718Z,17.27
2019-06-26T04:15:58.856Z,19.37
2019-06-26T04:18:28.759Z,17.30
2019-06-26T04:20:58.829Z,18.03
2019-06-26T04:23:28.860Z,16.50
2019-06-26T04:25:58.863Z,16.77
2019-06-26T04:28:28.887Z,15.27
2019-06-26T04:30:58.887Z,17.80
2019-06-26T04:33:28.835Z,15.13
2019-06-26T04:35:57.796Z,12.77
2019-06-26T04:38:26.750Z,16.33
2019-06-26T04:40:55.742Z,15.37
2019-06-26T04:43:24.718Z,13.20
2019-06-26T04:45:58.008Z,13.93
2019-06-26T04:48:24.383Z,16.43
2019-06-26T04:50:53.352Z,14.83
2019-06-26T04:53:22.428Z,15.60
2019-06-26T04:55:51.430Z,13.40
2019-06-26T04:58:20.326Z,14.13
2019-06-26T05:00:49.699Z,14.67
2019-06-26T05:03:18.712Z,16.90
2019-06-26T05:05:47.771Z,15.43
2019-06-26T05:08:16.782Z,15.70
2019-06-26T05:10:45.802Z,15.73
2019-06-26T05:13:15.145Z,14.43
2019-06-26T05:15:44.290Z,14.60
2019-06-26T05:18:13.409Z,16.27
2019-06-26T05:20:42.474Z,18.57
2019-06-26T05:23:11.829Z,16.27
2019-06-26T05:25:40.858Z,18.00
2019-06-26T05:28:09.870Z,16.60
2019-06-26T05:30:38.947Z,16.40
2019-06-26T05:33:08.022Z,17.50
2019-06-26T05:35:37.046Z,17.93
2019-06-26T05:38:06.088Z,16.20
2019-06-26T05:40:35.121Z,17.37
2019-06-26T05:43:04.154Z,17.53
2019-06-26T05:45:33.183Z,19.73
2019-06-26T05:48:02.842Z,19.87
2019-06-26T05:50:31.927Z,17.90
2019-06-26T05:53:00.891Z,19.67
2019-06-26T05:55:30.178Z,19.10
2019-06-26T05:57:59.522Z,18.03
2019-06-26T06:00:29.552Z,18.30
2019-06-26T06:02:59.469Z,20.23
2019-06-26T06:05:29.449Z,16.03
2019-06-26T06:07:59.617Z,18.10
2019-06-26T06:10:29.638Z,18.23
2019-06-26T06:12:59.654Z,18.47
2019-06-26T06:15:29.755Z,16.17
2019-06-26T06:17:59.679Z,19.20
2019-06-26T06:20:38.035Z,18.53
2019-06-26T06:23:07.272Z,17.33
2019-06-26T06:25:36.311Z,20.67
2019-06-26T06:28:05.356Z,16.17
2019-06-26T06:30:34.414Z,18.13
2019-06-26T06:33:03.451Z,15.60
2019-06-26T06:35:32.482Z,17.97
2019-06-26T06:38:01.520Z,16.53
2019-06-26T06:40:30.485Z,18.40
2019-06-26T06:42:59.827Z,17.47
2019-06-26T06:45:29.861Z,15.60
2019-06-26T06:47:59.792Z,16.73
2019-06-26T06:50:29.880Z,17.90
2019-06-26T06:52:58.896Z,15.00
2019-06-26T06:55:27.932Z,17.50
2019-06-26T06:57:56.970Z,17.40
2019-06-26T07:00:26.048Z,18.57
2019-06-26T07:02:54.994Z,17.57
2019-06-26T07:05:23.983Z,17.83
2019-06-26T07:07:53.030Z,18.30
2019-06-26T07:10:22.074Z,16.83
2019-06-26T07:12:51.138Z,17.03
2019-06-26T07:15:20.559Z,16.90
2019-06-26T07:17:49.594Z,16.57
2019-06-26T07:20:19.016Z,15.00
2019-06-26T07:22:48.335Z,18.02
2019-06-26T07:25:17.779Z,17.30
2019-06-26T07:27:47.013Z,16.07
2019-06-26T07:30:16.978Z,18.30
2019-06-26T07:32:46.005Z,17.63
2019-06-26T07:35:15.029Z,19.03
2019-06-26T07:37:44.088Z,18.27
2019-06-26T07:40:13.725Z,15.03
2019-06-26T07:42:42.766Z,17.40
2019-06-26T07:45:12.134Z,15.93
2019-06-26T07:47:43.815Z,15.63
2019-06-26T07:50:13.211Z,16.47
2019-06-26T07:52:42.536Z,15.23
2019-06-26T07:55:12.482Z,14.37
2019-06-26T07:57:42.000Z,13.87
2019-06-26T08:00:11.330Z,13.87
2019-06-26T08:02:40.390Z,13.50
2019-06-26T08:05:09.854Z,14.70
2019-06-26T08:07:38.911Z,14.77
2019-06-26T08:10:08.441Z,15.50
2019-06-26T08:12:37.505Z,13.97
2019-06-26T08:15:07.575Z,14.85
2019-06-26T08:17:36.589Z,15.47
2019-06-26T08:20:06.359Z,13.45
2019-06-26T08:22:35.730Z,14.97
2019-06-26T08:25:05.166Z,13.77
2019-06-26T08:27:34.162Z,12.57
2019-06-26T08:30:03.191Z,10.00
2019-06-26T08:32:32.517Z,9.43
2019-06-26T08:35:01.546Z,9.57
2019-06-26T08:37:31.153Z,12.30
2019-06-26T08:40:01.291Z,9.70
2019-06-26T08:42:31.306Z,11.00
2019-06-26T08:45:01.351Z,9.67
2019-06-26T08:47:31.478Z,10.73
2019-06-26T08:50:01.643Z,10.00
2019-06-26T08:52:31.296Z,10.07
2019-06-26T08:55:01.555Z,8.93
2019-06-26T08:57:31.309Z,8.37
2019-06-26T09:00:01.452Z,9.60
2019-06-26T09:02:31.336Z,9.90
2019-06-26T09:05:01.333Z,10.27
2019-06-26T09:07:31.836Z,9.95
2019-06-26T09:10:01.374Z,9.37
2019-06-26T09:12:31.496Z,8.20
2019-06-26T09:15:01.446Z,7.20
2019-06-26T09:17:31.485Z,8.10
2019-06-26T09:20:01.480Z,7.63
2019-06-26T09:22:31.393Z,9.10
2019-06-26T09:25:00.327Z,7.60
2019-06-26T09:27:29.286Z,8.43
2019-06-26T09:29:58.337Z,12.20
2019-06-26T09:32:27.632Z,8.30
2019-06-26T09:34:56.969Z,7.57
2019-06-26T09:37:25.946Z,10.00
2019-06-26T09:39:54.932Z,8.17
2019-06-26T09:42:23.876Z,7.80
2019-06-26T09:44:53.337Z,7.57
2019-06-26T09:47:22.287Z,6.97
2019-06-26T09:49:51.244Z,8.00
2019-06-26T09:52:20.320Z,9.77
2019-06-26T09:54:49.385Z,7.77
2019-06-26T09:57:18.284Z,7.00
2019-06-26T09:59:47.220Z,8.50
2019-06-26T10:02:16.219Z,7.97
2019-06-26T10:04:45.544Z,8.60
2019-06-26T10:07:14.589Z,7.92
2019-06-26T10:09:43.642Z,9.20
2019-06-26T10:12:13.010Z,7.63
2019-06-26T10:14:47.654Z,8.40
2019-06-26T10:17:12.869Z,8.97
2019-06-26T10:19:41.880Z,8.00
2019-06-26T10:22:10.986Z,8.90
2019-06-26T10:24:40.360Z,8.20
2019-06-26T10:27:09.313Z,8.50
2019-06-26T10:29:38.339Z,8.63
2019-06-26T10:32:07.386Z,9.57
2019-06-26T10:34:36.382Z,8.23
2019-06-26T10:37:05.519Z,8.97
2019-06-26T10:39:34.532Z,8.77
2019-06-26T10:42:03.567Z,9.50
2019-06-26T10:44:32.594Z,9.10
2019-06-26T10:47:02.240Z,9.73
2019-06-26T10:49:32.148Z,9.87
2019-06-26T10:52:01.173Z,8.40
2019-06-26T10:54:30.208Z,13.53
2019-06-26T10:56:59.675Z,7.63
2019-06-26T10:59:28.745Z,8.47
2019-06-26T11:01:57.770Z,9.00
2019-06-26T11:04:26.807Z,9.27
2019-06-26T11:06:55.836Z,9.03
2019-06-26T11:09:24.910Z,8.47
2019-06-26T11:11:54.027Z,8.73
2019-06-26T11:14:23.030Z,8.80
2019-06-26T11:16:52.125Z,10.97
2019-06-26T11:19:21.137Z,8.73
2019-06-26T11:21:50.201Z,13.30
2019-06-26T11:24:19.324Z,10.07
2019-06-26T11:26:48.767Z,9.80
2019-06-26T11:29:17.797Z,8.93
2019-06-26T11:31:46.742Z,9.90
2019-06-26T11:34:15.761Z,14.13
2019-06-26T11:36:49.166Z,11.23
2019-06-26T11:39:15.421Z,9.07
2019-06-26T11:41:44.444Z,8.17
2019-06-26T11:44:13.790Z,9.77
2019-06-26T11:46:42.820Z,9.83
2019-06-26T11:49:11.880Z,9.03
2019-06-26T11:51:41.191Z,8.67
2019-06-26T11:54:10.197Z,9.18
2019-06-26T11:56:39.230Z,9.70
2019-06-26T11:59:08.660Z,8.13
2019-06-26T12:01:37.722Z,8.50
2019-06-26T12:04:06.884Z,6.73
2019-06-26T12:06:35.934Z,6.33
2019-06-26T12:09:07.654Z,7.33
2019-06-26T12:11:36.705Z,9.20
2019-06-26T12:14:05.982Z,7.80
2019-06-26T12:16:35.069Z,6.53
2019-06-26T12:19:04.184Z,8.97
2019-06-26T12:21:33.220Z,7.30
2019-06-26T12:24:03.003Z,6.37
2019-06-26T12:26:33.007Z,9.23
2019-06-26T12:29:03.024Z,7.60
2019-06-26T12:31:33.041Z,10.47
2019-06-26T12:34:03.049Z,8.37
2019-06-26T12:36:33.122Z,6.53
2019-06-26T12:39:04.705Z,9.10
2019-06-26T12:41:33.589Z,6.73
2019-06-26T12:44:03.140Z,6.00
2019-06-26T12:46:33.062Z,9.30
2019-06-26T12:49:02.484Z,7.03
2019-06-26T12:51:31.512Z,6.30
2019-06-26T12:54:00.538Z,9.10
2019-06-26T12:56:29.567Z,9.70
2019-06-26T12:59:00.061Z,8.50
2019-06-26T13:01:29.255Z,6.23
2019-06-26T13:03:58.361Z,7.37
2019-06-26T13:06:27.509Z,7.40
2019-06-26T13:08:56.579Z,7.67
2019-06-26T13:11:25.602Z,8.43
2019-06-26T13:14:02.590Z,7.83
2019-06-26T13:16:25.680Z,9.20
2019-06-26T13:18:54.796Z,7.70
2019-06-26T13:21:23.832Z,10.23
2019-06-26T13:23:54.508Z,7.77
2019-06-26T13:26:23.538Z,6.90
2019-06-26T13:28:52.542Z,8.30
2019-06-26T13:31:21.677Z,7.00
2019-06-26T13:33:50.719Z,7.05
2019-06-26T13:36:19.775Z,9.33
2019-06-26T13:38:48.786Z,8.57
2019-06-26T13:41:17.753Z,7.13
2019-06-26T13:43:46.620Z,7.67
2019-06-26T13:46:15.624Z,7.97
2019-06-26T13:48:45.063Z,8.30
2019-06-26T13:51:14.069Z,9.57
2019-06-26T13:53:43.092Z,8.47
2019-06-26T13:56:12.123Z,9.37
2019-06-26T13:58:41.144Z,8.03
2019-06-26T14:01:10.156Z,8.93
2019-06-26T14:03:39.285Z,8.33
2019-06-26T14:06:08.330Z,10.20
2019-06-26T14:08:37.426Z,12.20
2019-06-26T14:11:07.578Z,10.40
2019-06-26T14:13:36.733Z,13.90
2019-06-26T14:16:05.824Z,11.77
2019-06-26T14:18:34.944Z,10.73
2019-06-26T14:21:04.390Z,12.23
2019-06-26T14:23:36.994Z,13.27
2019-06-26T14:26:04.812Z,11.07
2019-06-26T14:28:34.406Z,12.03
2019-06-26T14:31:04.059Z,14.40
2019-06-26T14:33:34.074Z,11.60
2019-06-26T14:36:03.115Z,11.17
2019-06-26T14:38:32.167Z,15.83
2019-06-26T14:41:01.196Z,11.33
2019-06-26T14:43:30.653Z,10.63
2019-06-26T14:45:59.690Z,10.60
2019-06-26T14:48:28.796Z,10.77
2019-06-26T14:50:57.663Z,9.25
2019-06-26T14:53:26.700Z,10.00
2019-06-26T14:55:55.818Z,14.73
2019-06-26T14:58:25.150Z,9.63
2019-06-26T15:00:54.202Z,10.17
2019-06-26T15:03:23.237Z,9.50
2019-06-26T15:05:52.254Z,12.00
2019-06-26T15:08:22.808Z,11.20
2019-06-26T15:10:51.843Z,8.90
2019-06-26T15:13:20.851Z,9.20
2019-06-26T15:15:49.885Z,9.60
2019-06-26T15:18:19.361Z,9.40
2019-06-26T15:20:49.667Z,13.30
2019-06-26T15:23:19.380Z,8.53
2019-06-26T15:25:49.416Z,14.80
2019-06-26T15:28:19.440Z,9.30
2019-06-26T15:30:49.430Z,9.70
2019-06-26T15:33:19.427Z,9.33
2019-06-26T15:35:49.683Z,13.57
2019-06-26T15:38:22.560Z,8.63
2019-06-26T15:40:51.965Z,9.43
2019-06-26T15:43:21.022Z,8.47
2019-06-26T15:45:50.256Z,9.77
2019-06-26T15:48:19.482Z,8.13
2019-06-26T15:50:48.569Z,10.60
2019-06-26T15:53:17.679Z,6.53
2019-06-26T15:55:46.686Z,6.37
2019-06-26T15:58:15.647Z,8.00
2019-06-26T16:00:45.196Z,6.37
2019-06-26T16:03:14.224Z,5.60
2019-06-26T16:05:43.248Z,4.90
2019-06-26T16:08:12.274Z,5.30
2019-06-26T16:10:41.210Z,11.30
2019-06-26T16:13:10.166Z,5.83
2019-06-26T16:15:39.698Z,7.03
2019-06-26T16:18:17.918Z,5.03
2019-06-26T16:20:46.853Z,5.23
2019-06-26T16:23:16.111Z,7.00
2019-06-26T16:25:45.132Z,7.50
2019-06-26T16:28:14.162Z,5.27
2019-06-26T16:30:43.210Z,4.97
2019-06-26T16:33:12.260Z,8.33
2019-06-26T16:35:41.282Z,4.73
2019-06-26T16:38:10.324Z,5.80
2019-06-26T16:40:39.256Z,7.20
2019-06-26T16:43:08.213Z,5.40
2019-06-26T16:45:37.406Z,10.63
2019-06-26T16:48:06.439Z,6.90
2019-06-26T16:50:35.413Z,10.50
2019-06-26T16:53:04.457Z,6.83
2019-06-26T16:55:33.510Z,7.33
2019-06-26T16:58:02.504Z,8.63
2019-06-26T17:00:31.674Z,6.50
2019-06-26T17:03:00.696Z,6.20
2019-06-26T17:05:29.745Z,6.53
2019-06-26T17:07:58.828Z,5.60
2019-06-26T17:10:27.917Z,6.10
2019-06-26T17:12:56.879Z,5.90
2019-06-26T17:15:25.923Z,12.23
2019-06-26T17:17:54.972Z,9.18
2019-06-26T17:20:24.003Z,9.60
2019-06-26T17:23:05.114Z,7.03
2019-06-26T17:25:23.680Z,10.00
2019-06-26T17:27:52.731Z,8.03
2019-06-26T17:30:22.337Z,8.17
2019-06-26T17:32:52.208Z,11.10
2019-06-26T17:35:22.246Z,12.47
2019-06-26T17:37:52.277Z,11.75
2019-06-26T17:40:22.820Z,11.90
2019-06-26T17:42:52.304Z,9.73
2019-06-26T17:45:22.327Z,10.45
2019-06-26T17:47:52.225Z,9.47
2019-06-26T17:50:21.354Z,11.00
2019-06-26T17:52:50.394Z,11.80
2019-06-26T17:55:19.449Z,10.67
2019-06-26T17:57:48.472Z,9.67
2019-06-26T18:00:18.921Z,8.70
2019-06-26T18:02:47.911Z,8.87
2019-06-26T18:05:16.924Z,7.33
2019-06-26T18:07:45.936Z,6.87
2019-06-26T18:10:15.242Z,9.23
2019-06-26T18:12:44.262Z,8.83
2019-06-26T18:15:13.290Z,10.97
2019-06-26T18:17:42.329Z,5.37
2019-06-26T18:20:11.698Z,11.83
2019-06-26T18:22:40.990Z,10.20
2019-06-26T18:25:10.111Z,5.00
2019-06-26T18:27:39.136Z,12.90
2019-06-26T18:30:08.741Z,11.45
2019-06-26T18:32:37.750Z,10.90
2019-06-26T18:35:06.979Z,8.43
2019-06-26T18:37:36.010Z,8.00
2019-06-26T18:40:05.483Z,6.70
2019-06-26T18:42:34.452Z,8.20
2019-06-26T18:45:03.464Z,6.33
2019-06-26T18:47:32.494Z,7.13
2019-06-26T18:50:01.525Z,8.03
2019-06-26T18:52:30.845Z,17.30
2019-06-26T18:54:59.806Z,10.50
2019-06-26T18:57:28.775Z,8.20
2019-06-26T18:59:57.837Z,13.13
2019-06-26T19:02:26.841Z,7.13
2019-06-26T19:04:55.874Z,9.80
2019-06-26T19:07:25.143Z,11.37
2019-06-26T19:09:54.171Z,9.80
2019-06-26T19:12:23.220Z,11.40
2019-06-26T19:14:53.052Z,9.93
2019-06-26T19:17:23.442Z,9.47
2019-06-26T19:19:52.995Z,13.58
2019-06-26T19:22:23.063Z,9.33
2019-06-26T19:24:53.035Z,9.03
2019-06-26T19:27:23.040Z,7.67
2019-06-26T19:29:53.141Z,6.20
2019-06-26T19:32:23.015Z,7.47
2019-06-26T19:34:52.014Z,6.87
2019-06-26T19:37:21.077Z,6.50
2019-06-26T19:39:50.103Z,7.27
2019-06-26T19:42:19.168Z,8.03
2019-06-26T19:44:48.180Z,11.30
2019-06-26T19:47:17.269Z,10.90
2019-06-26T19:49:46.269Z,15.07
2019-06-26T19:52:15.348Z,6.73
2019-06-26T19:54:44.310Z,12.33
2019-06-26T19:57:13.426Z,8.90
2019-06-26T19:59:42.456Z,8.03
2019-06-26T20:02:11.510Z,8.40
2019-06-26T20:04:40.576Z,11.90
2019-06-26T20:07:09.614Z,8.23
2019-06-26T20:09:38.670Z,10.13
2019-06-26T20:12:08.010Z,9.53
2019-06-26T20:14:37.015Z,10.60
2019-06-26T20:17:06.037Z,8.90
2019-06-26T20:19:34.990Z,11.80
2019-06-26T20:22:04.063Z,10.37
2019-06-26T20:24:43.626Z,9.40
2019-06-26T20:27:04.266Z,11.33
2019-06-26T20:29:33.268Z,6.13
2019-06-26T20:32:02.331Z,8.47
2019-06-26T20:34:31.298Z,6.70
2019-06-26T20:37:00.200Z,10.87
2019-06-26T20:39:29.178Z,7.80
2019-06-26T20:41:58.179Z,8.10
2019-06-26T20:44:27.093Z,16.90
2019-06-26T20:46:56.047Z,11.73
2019-06-26T20:49:24.990Z,10.07
2019-06-26T20:51:54.032Z,10.77
2019-06-26T20:54:23.939Z,10.00
2019-06-26T20:56:53.951Z,10.70
2019-06-26T20:59:23.937Z,9.68
2019-06-26T21:01:53.991Z,15.43
2019-06-26T21:04:23.855Z,7.78
2019-06-26T21:06:52.771Z,10.70
2019-06-26T21:09:21.831Z,12.50
2019-06-26T21:11:50.838Z,11.83
2019-06-26T21:14:19.802Z,6.70
2019-06-26T21:16:48.691Z,11.60
2019-06-26T21:19:17.725Z,11.53
2019-06-26T21:21:46.681Z,13.37
2019-06-26T21:24:15.696Z,9.50
2019-06-26T21:26:44.697Z,9.63
2019-06-26T21:29:13.733Z,9.90
2019-06-26T21:31:42.659Z,9.37
2019-06-26T21:34:11.652Z,12.20
2019-06-26T21:36:40.591Z,8.33
2019-06-26T21:39:09.641Z,6.77
2019-06-26T21:41:38.582Z,13.03
2019-06-26T21:44:07.631Z,14.00
2019-06-26T21:46:36.577Z,10.43
2019-06-26T21:49:05.626Z,19.00
2019-06-26T21:51:34.566Z,11.80
2019-06-26T21:54:03.570Z,13.20
2019-06-26T21:56:32.531Z,7.60
2019-06-26T21:59:01.539Z,6.83
2019-06-26T22:01:31.379Z,12.20
2019-06-26T22:04:01.014Z,9.90
2019-06-26T22:06:30.474Z,14.03
2019-06-26T22:08:59.511Z,13.45
2019-06-26T22:11:28.538Z,14.00
2019-06-26T22:13:57.824Z,15.20
2019-06-26T22:16:27.135Z,13.07
2019-06-26T22:18:56.173Z,20.23
2019-06-26T22:21:25.218Z,14.60
2019-06-26T22:23:54.598Z,14.07
2019-06-26T22:26:24.682Z,13.68
2019-06-26T22:28:54.716Z,12.03
2019-06-26T22:31:24.733Z,11.35
2019-06-26T22:33:54.801Z,19.20
2019-06-26T22:36:24.720Z,12.10
2019-06-26T22:38:54.046Z,11.40
2019-06-26T22:41:23.090Z,17.73
2019-06-26T22:43:52.112Z,9.87
2019-06-26T22:46:21.173Z,23.80
2019-06-26T22:48:50.152Z,20.70
2019-06-26T22:51:19.171Z,7.07
2019-06-26T22:53:48.224Z,14.20
2019-06-26T22:56:17.309Z,18.20
2019-06-26T22:58:46.347Z,16.73
2019-06-26T23:01:15.399Z,11.20
2019-06-26T23:03:44.456Z,12.93
2019-06-26T23:06:13.498Z,12.10
2019-06-26T23:08:42.531Z,12.83
2019-06-26T23:11:11.597Z,11.00
2019-06-26T23:13:40.627Z,11.10
2019-06-26T23:16:09.687Z,7.83
2019-06-26T23:18:38.723Z,15.37
2019-06-26T23:21:07.758Z,10.53
2019-06-26T23:23:36.824Z,13.27
2019-06-26T23:26:06.107Z,14.63
2019-06-26T23:28:35.153Z,16.40
2019-06-26T23:31:04.164Z,11.33
2019-06-26T23:33:33.236Z,11.60
2019-06-26T23:36:02.239Z,9.90
2019-06-26T23:38:31.174Z,7.87
2019-06-26T23:41:00.241Z,11.50
2019-06-26T23:43:29.588Z,14.35
2019-06-26T23:45:58.592Z,9.87
2019-06-26T23:48:27.899Z,12.20
2019-06-26T23:50:56.834Z,8.77
2019-06-26T23:53:25.894Z,9.40
2019-06-26T23:55:55.524Z,10.93
2019-06-26T23:58:25.893Z,11.70
